createdAt,value
2018-12-13T00:02:23.339Z,23.93
2018-12-13T00:04:52.472Z,20.23
2018-12-13T00:07:21.667Z,22.63
2018-12-13T00:12:29.985Z,23.33
2018-12-13T00:14:59.102Z,24.23
2018-12-13T00:17:28.152Z,19.80
2018-12-13T00:19:57.308Z,16.95
2018-12-13T00:22:26.684Z,18.90
2018-12-13T00:24:55.702Z,24.23
2018-12-13T00:27:25.024Z,17.12
2018-12-13T00:29:54.072Z,24.32
2018-12-13T00:35:02.356Z,21.53
2018-12-13T00:37:31.424Z,20.32
2018-12-13T00:40:00.499Z,29.20
2018-12-13T00:45:08.935Z,22.87
2018-12-13T00:50:16.192Z,20.00
2018-12-13T00:55:24.508Z,24.63
2018-12-13T00:57:53.568Z,27.62
2018-12-13T01:00:22.691Z,24.03
2018-12-13T01:05:29.967Z,27.57
2018-12-13T01:07:59.100Z,24.20
2018-12-13T01:10:28.111Z,25.03
2018-12-13T01:12:57.135Z,26.33
2018-12-13T01:18:07.239Z,27.17
2018-12-13T01:23:15.517Z,25.63
2018-12-13T01:25:44.692Z,24.10
2018-12-13T01:28:14.105Z,24.70
2018-12-13T01:30:44.084Z,26.23
2018-12-13T01:35:52.913Z,16.17
2018-12-13T01:38:22.035Z,10.93
2018-12-13T01:40:51.211Z,12.25
2018-12-13T01:43:21.344Z,13.50
2018-12-13T01:45:50.439Z,9.93
2018-12-13T01:50:57.876Z,11.80
2018-12-13T01:53:26.967Z,12.70
2018-12-13T01:55:56.155Z,10.35
2018-12-13T01:58:25.242Z,11.45
2018-12-13T02:00:54.385Z,11.22
2018-12-13T02:03:23.619Z,13.78
2018-12-13T02:08:33.916Z,15.77
2018-12-13T02:11:03.089Z,13.13
2018-12-13T02:13:32.223Z,15.70
2018-12-13T02:18:40.513Z,12.20
2018-12-13T02:21:09.619Z,11.78
2018-12-13T02:23:38.750Z,13.53
2018-12-13T02:28:46.993Z,14.20
2018-12-13T02:31:16.143Z,16.63
2018-12-13T02:33:45.242Z,14.50
2018-12-13T02:36:14.844Z,15.70
2018-12-13T02:38:45.044Z,9.76
2018-12-13T02:41:14.984Z,8.98
2018-12-13T02:43:45.072Z,16.10
2018-12-13T02:46:15.993Z,10.60
2018-12-13T02:48:45.149Z,10.20
2018-12-13T02:51:15.148Z,10.50
2018-12-13T02:53:45.062Z,11.83
2018-12-13T02:58:52.737Z,12.60
2018-12-13T03:01:21.995Z,14.13
2018-12-13T03:03:51.162Z,10.25
2018-12-13T03:06:20.694Z,16.57
2018-12-13T03:08:49.884Z,20.03
2018-12-13T03:11:18.990Z,15.00
2018-12-13T03:13:48.166Z,14.30
2018-12-13T03:16:18.100Z,14.37
2018-12-13T03:18:47.336Z,15.90
2018-12-13T03:21:16.502Z,20.23
2018-12-13T03:23:45.621Z,15.67
2018-12-13T03:26:15.551Z,18.40
2018-12-13T03:28:45.616Z,16.97
2018-12-13T03:31:15.566Z,19.20
2018-12-13T03:33:45.498Z,22.48
2018-12-13T03:36:15.697Z,21.45
2018-12-13T03:38:45.716Z,17.67
2018-12-13T03:41:15.650Z,19.62
2018-12-13T03:43:45.657Z,18.25
2018-12-13T03:46:15.628Z,18.85
2018-12-13T03:48:45.661Z,19.80
2018-12-13T03:51:15.762Z,17.30
2018-12-13T03:56:24.820Z,24.80
2018-12-13T03:58:53.924Z,24.75
2018-12-13T04:01:23.070Z,22.03
2018-12-13T04:03:52.176Z,23.47
2018-12-13T04:09:00.512Z,21.57
2018-12-13T04:11:29.617Z,16.67
2018-12-13T04:13:59.408Z,25.97
2018-12-13T04:16:28.536Z,18.83
2018-12-13T04:21:37.941Z,23.93
2018-12-13T04:24:07.000Z,24.50
2018-12-13T04:26:36.086Z,27.43
2018-12-13T04:31:43.873Z,24.07
2018-12-13T04:34:12.980Z,21.50
2018-12-13T04:39:22.771Z,28.70
2018-12-13T04:44:32.590Z,30.30
2018-12-13T04:49:39.868Z,26.43
2018-12-13T04:54:48.556Z,25.70
2018-12-13T04:57:18.062Z,28.43
2018-12-13T05:02:26.203Z,24.63
2018-12-13T05:04:55.343Z,23.60
2018-12-13T05:07:24.357Z,23.65
2018-12-13T05:09:54.092Z,20.60
2018-12-13T05:12:23.180Z,29.27
2018-12-13T05:14:52.396Z,25.17
2018-12-13T05:17:21.520Z,28.14
2018-12-13T05:19:50.569Z,29.00
2018-12-13T05:22:19.831Z,25.17
2018-12-13T05:24:48.972Z,28.90
2018-12-13T05:27:18.091Z,34.97
2018-12-13T05:29:47.279Z,33.03
2018-12-13T05:32:18.001Z,32.23
2018-12-13T05:34:48.318Z,27.57
2018-12-13T05:39:57.309Z,33.60
2018-12-13T05:42:26.419Z,31.10
2018-12-13T05:44:55.539Z,25.90
2018-12-13T05:47:24.629Z,37.03
2018-12-13T05:49:53.780Z,28.53
2018-12-13T05:52:22.902Z,32.80
2018-12-13T05:57:30.292Z,30.77
2018-12-13T05:59:59.407Z,28.60
2018-12-13T06:02:28.537Z,27.73
2018-12-13T06:04:57.612Z,31.67
2018-12-13T06:07:26.828Z,37.67
2018-12-13T06:09:56.016Z,38.23
2018-12-13T06:12:25.180Z,35.63
2018-12-13T06:14:54.378Z,23.73
2018-12-13T06:17:23.581Z,38.48
2018-12-13T06:22:31.821Z,33.47
2018-12-13T06:25:00.896Z,37.13
2018-12-13T06:27:30.108Z,35.23
2018-12-13T06:29:59.281Z,36.75
2018-12-13T06:32:28.584Z,31.40
2018-12-13T06:34:57.688Z,38.90
2018-12-13T06:37:26.843Z,37.67
2018-12-13T06:39:56.003Z,37.28
2018-12-13T06:42:25.108Z,36.25
2018-12-13T06:47:32.897Z,41.90
2018-12-13T06:50:02.055Z,34.40
2018-12-13T06:52:31.296Z,43.53
2018-12-13T06:57:38.666Z,32.30
2018-12-13T07:00:09.468Z,41.83
2018-12-13T07:02:38.660Z,37.23
2018-12-13T07:05:07.960Z,34.10
2018-12-13T07:07:37.040Z,35.67
2018-12-13T07:10:06.289Z,41.80
2018-12-13T07:12:35.400Z,41.53
2018-12-13T07:15:06.324Z,37.90
2018-12-13T07:20:14.584Z,34.57
2018-12-13T07:25:27.336Z,36.80
2018-12-13T07:27:56.698Z,44.10
2018-12-13T07:33:05.672Z,38.80
2018-12-13T07:38:14.392Z,36.00
2018-12-13T07:40:43.872Z,25.83
2018-12-13T07:43:13.045Z,40.67
2018-12-13T07:45:42.113Z,29.87
2018-12-13T07:48:11.137Z,25.23
2018-12-13T07:50:40.240Z,31.67
2018-12-13T07:53:09.412Z,37.03
2018-12-13T07:55:38.480Z,35.60
2018-12-13T08:00:46.256Z,32.63
2018-12-13T08:03:15.340Z,32.83
2018-12-13T08:05:44.469Z,35.20
2018-12-13T08:08:13.696Z,43.27
2018-12-13T08:13:22.496Z,32.97
2018-12-13T08:15:51.604Z,30.73
2018-12-13T08:21:02.815Z,35.20
2018-12-13T08:23:31.960Z,27.53
2018-12-13T08:26:01.065Z,24.33
2018-12-13T08:28:30.264Z,37.00
2018-12-13T08:30:59.451Z,26.65
2018-12-13T08:33:28.641Z,27.97
2018-12-13T08:35:57.816Z,31.50
2018-12-13T08:38:27.482Z,29.57
2018-12-13T08:40:56.887Z,27.97
2018-12-13T08:43:25.999Z,34.60
2018-12-13T08:45:55.123Z,25.23
2018-12-13T08:48:24.204Z,32.95
2018-12-13T08:50:54.310Z,30.15
2018-12-13T08:53:23.652Z,26.33
2018-12-13T08:58:32.257Z,38.27
2018-12-13T09:01:01.549Z,25.68
2018-12-13T09:03:30.556Z,29.18
2018-12-13T09:05:59.892Z,31.87
2018-12-13T09:08:33.588Z,31.30
2018-12-13T09:11:00.096Z,29.53
2018-12-13T09:13:29.188Z,23.47
2018-12-13T09:15:58.527Z,29.00
2018-12-13T09:18:27.700Z,24.73
2018-12-13T09:20:56.984Z,35.08
2018-12-13T09:23:26.244Z,28.50
2018-12-13T09:25:55.415Z,28.93
2018-12-13T09:28:24.541Z,23.18
2018-12-13T09:30:53.772Z,33.13
2018-12-13T09:33:22.911Z,33.60
2018-12-13T09:35:52.117Z,26.48
2018-12-13T09:41:00.359Z,29.53
2018-12-13T09:43:30.549Z,24.70
2018-12-13T09:45:59.634Z,27.50
2018-12-13T09:48:28.699Z,33.93
2018-12-13T09:50:57.791Z,31.73
2018-12-13T09:53:27.012Z,30.80
2018-12-13T09:58:35.272Z,33.10
2018-12-13T10:01:04.506Z,30.27
2018-12-13T10:03:33.564Z,22.30
2018-12-13T10:06:02.768Z,23.17
2018-12-13T10:08:31.836Z,26.43
2018-12-13T10:11:00.988Z,28.20
2018-12-13T10:13:30.152Z,27.10
2018-12-13T10:18:38.418Z,34.30
2018-12-13T10:21:07.669Z,31.97
2018-12-13T10:23:36.684Z,34.97
2018-12-13T10:26:05.963Z,20.43
2018-12-13T10:28:35.062Z,28.43
2018-12-13T10:31:04.256Z,23.67
2018-12-13T10:33:33.379Z,30.60
2018-12-13T10:36:02.562Z,29.07
2018-12-13T10:41:10.812Z,22.67
2018-12-13T10:43:39.936Z,25.57
2018-12-13T10:46:09.023Z,24.73
2018-12-13T10:51:18.194Z,21.40
2018-12-13T10:53:47.416Z,19.87
2018-12-13T10:56:17.608Z,22.90
2018-12-13T10:58:47.748Z,23.50
2018-12-13T11:04:16.629Z,19.87
2018-12-13T11:06:45.786Z,26.97
2018-12-13T11:09:16.168Z,24.43
2018-12-13T11:11:45.403Z,16.93
2018-12-13T11:14:14.572Z,18.03
2018-12-13T11:16:43.720Z,17.00
2018-12-13T11:19:13.057Z,22.40
2018-12-13T11:21:42.201Z,21.42
2018-12-13T11:24:11.457Z,18.82
2018-12-13T11:26:40.556Z,16.90
2018-12-13T11:29:27.439Z,21.27
2018-12-13T11:34:35.789Z,25.57
2018-12-13T11:37:04.935Z,18.47
2018-12-13T11:39:34.072Z,19.23
2018-12-13T11:42:03.200Z,17.30
2018-12-13T11:44:32.294Z,21.73
2018-12-13T11:47:01.413Z,17.20
2018-12-13T11:52:09.742Z,19.93
2018-12-13T11:57:23.327Z,19.60
2018-12-13T11:59:52.411Z,21.73
2018-12-13T12:02:24.175Z,19.47
2018-12-13T12:04:52.705Z,18.87
2018-12-13T12:07:21.825Z,15.43
2018-12-13T12:09:50.976Z,16.00
2018-12-13T12:12:20.950Z,16.77
2018-12-13T12:17:30.145Z,21.87
2018-12-13T12:19:59.264Z,25.47
2018-12-13T12:22:28.513Z,20.83
2018-12-13T12:24:57.596Z,29.97
2018-12-13T12:27:26.810Z,16.60
2018-12-13T12:29:55.998Z,22.30
2018-12-13T12:32:25.307Z,21.23
2018-12-13T12:34:54.496Z,19.93
2018-12-13T12:37:23.631Z,20.17
2018-12-13T12:39:52.772Z,25.37
2018-12-13T12:42:22.798Z,17.73
2018-12-13T12:44:51.968Z,24.33
2018-12-13T12:47:21.368Z,20.92
2018-12-13T12:52:29.109Z,18.53
2018-12-13T12:57:36.967Z,24.67
2018-12-13T13:00:07.925Z,19.00
2018-12-13T13:02:37.672Z,16.82
2018-12-13T13:05:07.304Z,20.55
2018-12-13T13:07:37.648Z,26.13
2018-12-13T13:10:07.740Z,19.47
2018-12-13T13:12:36.925Z,17.98
2018-12-13T13:15:06.191Z,26.23
2018-12-13T13:17:35.305Z,30.97
2018-12-13T13:20:05.035Z,28.03
2018-12-13T13:22:34.156Z,23.03
2018-12-13T13:25:03.495Z,30.83
2018-12-13T13:27:32.789Z,38.40
2018-12-13T13:30:01.939Z,32.08
2018-12-13T13:32:32.274Z,33.83
2018-12-13T13:35:01.491Z,27.93
2018-12-13T13:37:30.653Z,24.17
2018-12-13T13:39:59.863Z,25.80
2018-12-13T13:42:28.983Z,25.90
2018-12-13T13:45:02.445Z,28.42
2018-12-13T13:47:31.648Z,29.83
2018-12-13T13:50:00.779Z,28.83
2018-12-13T13:52:30.885Z,31.47
2018-12-13T13:54:59.970Z,29.63
2018-12-13T14:00:09.905Z,29.80
2018-12-13T14:02:38.988Z,28.60
2018-12-13T14:05:08.309Z,28.97
2018-12-13T14:07:37.526Z,22.25
2018-12-13T14:10:08.058Z,30.63
2018-12-13T14:12:37.271Z,26.93
2018-12-13T14:15:07.253Z,31.60
2018-12-13T14:17:36.427Z,24.73
2018-12-13T14:20:06.028Z,28.20
2018-12-13T14:22:35.139Z,31.80
2018-12-13T14:25:04.547Z,28.53
2018-12-13T14:27:33.813Z,33.97
2018-12-13T14:30:08.528Z,30.77
2018-12-13T14:32:38.282Z,30.45
2018-12-13T14:35:07.672Z,27.60
2018-12-13T14:37:36.852Z,31.12
2018-12-13T14:40:06.238Z,26.87
2018-12-13T14:42:35.480Z,30.50
2018-12-13T14:45:05.319Z,37.30
2018-12-13T14:47:35.461Z,35.67
2018-12-13T14:50:05.683Z,34.60
2018-12-13T14:52:34.764Z,33.88
2018-12-13T14:57:45.817Z,29.87
2018-12-13T15:00:15.063Z,29.97
2018-12-13T15:02:44.161Z,38.75
2018-12-13T15:07:52.587Z,36.60
2018-12-13T15:10:21.710Z,39.17
2018-12-13T15:12:50.844Z,28.03
2018-12-13T15:17:59.556Z,38.23
2018-12-13T15:20:28.740Z,36.43
2018-12-13T15:22:57.827Z,27.03
2018-12-13T15:25:27.111Z,34.80
2018-12-13T15:27:56.199Z,31.00
2018-12-13T15:30:25.535Z,33.57
2018-12-13T15:32:54.861Z,38.45
2018-12-13T15:35:23.979Z,37.00
2018-12-13T15:37:53.904Z,35.17
2018-12-13T15:40:23.796Z,35.80
2018-12-13T15:42:53.925Z,31.23
2018-12-13T15:45:24.143Z,35.48
2018-12-13T15:50:33.174Z,41.20
2018-12-13T15:55:40.956Z,30.37
2018-12-13T16:00:49.331Z,30.83
2018-12-13T16:03:18.457Z,32.90
2018-12-13T16:05:47.551Z,37.13
2018-12-13T16:08:17.745Z,33.43
2018-12-13T16:13:25.948Z,37.33
2018-12-13T16:15:55.040Z,33.57
2018-12-13T16:18:24.441Z,31.02
2018-12-13T16:20:54.309Z,32.45
2018-12-13T16:23:24.394Z,40.68
2018-12-13T16:25:54.499Z,33.78
2018-12-13T16:28:24.643Z,37.66
2018-12-13T16:30:54.616Z,30.88
2018-12-13T16:33:24.752Z,37.30
2018-12-13T16:35:56.323Z,30.75
2018-12-13T16:38:25.578Z,26.80
2018-12-13T16:40:54.721Z,34.97
2018-12-13T16:46:04.081Z,32.53
2018-12-13T16:48:34.390Z,27.73
2018-12-13T16:51:03.536Z,33.43
2018-12-13T16:53:32.705Z,33.77
2018-12-13T16:56:03.044Z,39.83
2018-12-13T17:01:11.059Z,39.20
2018-12-13T17:03:42.405Z,34.20
2018-12-13T17:06:11.693Z,40.90
2018-12-13T17:11:20.161Z,43.13
2018-12-13T17:13:50.429Z,39.63
2018-12-13T17:16:19.779Z,37.57
2018-12-13T17:18:48.808Z,29.93
2018-12-13T17:21:18.126Z,29.43
2018-12-13T17:23:47.336Z,41.83
2018-12-13T17:26:16.610Z,28.53
2018-12-13T17:28:45.717Z,39.93
2018-12-13T17:33:54.481Z,41.73
2018-12-13T17:36:23.720Z,40.08
2018-12-13T17:38:53.130Z,35.03
2018-12-13T17:41:22.280Z,35.60
2018-12-13T17:43:51.391Z,34.97
2018-12-13T17:46:20.667Z,30.95
2018-12-13T17:48:49.790Z,36.23
2018-12-13T17:51:18.932Z,39.60
2018-12-13T17:56:26.975Z,32.00
2018-12-13T17:58:56.183Z,34.60
2018-12-13T18:01:25.902Z,35.70
2018-12-13T18:03:55.978Z,40.70
2018-12-13T18:06:25.989Z,41.45
2018-12-13T18:08:56.384Z,35.48
2018-12-13T18:11:26.117Z,32.50
2018-12-13T18:13:56.047Z,40.67
2018-12-13T18:16:26.268Z,36.32
2018-12-13T18:18:56.340Z,42.88
2018-12-13T18:21:26.641Z,39.12
2018-12-13T18:23:56.179Z,42.10
2018-12-13T18:26:26.323Z,37.04
2018-12-13T18:28:56.469Z,38.15
2018-12-13T18:34:05.824Z,35.50
2018-12-13T18:36:34.927Z,49.80
2018-12-13T18:39:06.834Z,33.70
2018-12-13T18:41:36.255Z,37.17
2018-12-13T18:46:45.042Z,37.00
2018-12-13T18:49:15.039Z,38.80
2018-12-13T18:54:23.244Z,34.73
2018-12-13T18:56:52.315Z,39.50
2018-12-13T18:59:21.548Z,37.13
2018-12-13T19:01:50.700Z,34.20
2018-12-13T19:06:59.293Z,30.23
2018-12-13T19:09:28.384Z,29.70
2018-12-13T19:11:57.528Z,46.73
2018-12-13T19:14:28.425Z,41.80
2018-12-13T19:16:57.566Z,30.93
2018-12-13T19:22:06.192Z,34.73
2018-12-13T19:24:35.264Z,36.30
2018-12-13T19:27:04.373Z,41.53
2018-12-13T19:29:33.737Z,32.43
2018-12-13T19:32:03.101Z,32.43
2018-12-13T19:34:32.230Z,40.83
2018-12-13T19:37:01.421Z,49.10
2018-12-13T19:39:32.483Z,55.38
2018-12-13T19:42:01.707Z,38.25
2018-12-13T19:47:09.912Z,52.17
2018-12-13T19:49:39.101Z,49.83
2018-12-13T19:52:09.421Z,37.80
2018-12-13T19:54:38.544Z,38.00
2018-12-13T19:57:07.753Z,39.70
2018-12-13T19:59:36.957Z,36.68
2018-12-13T20:04:45.006Z,50.53
2018-12-13T20:07:14.110Z,44.37
2018-12-13T20:09:43.303Z,45.93
2018-12-13T20:12:12.528Z,37.07
2018-12-13T20:14:41.772Z,48.00
2018-12-13T20:17:12.184Z,43.00
2018-12-13T20:19:41.396Z,53.10
2018-12-13T20:22:10.568Z,42.17
2018-12-13T20:24:39.873Z,49.70
2018-12-13T20:27:08.996Z,43.97
2018-12-13T20:29:38.472Z,48.23
2018-12-13T20:32:07.713Z,45.50
2018-12-13T20:34:36.941Z,37.37
2018-12-13T20:37:06.085Z,43.07
2018-12-13T20:39:35.220Z,41.77
2018-12-13T20:42:04.348Z,39.07
2018-12-13T20:44:33.483Z,37.02
2018-12-13T20:47:02.638Z,34.13
2018-12-13T20:52:09.891Z,37.23
2018-12-13T20:54:38.972Z,39.75
2018-12-13T20:59:47.158Z,32.30
2018-12-13T21:02:17.516Z,33.73
2018-12-13T21:04:46.576Z,32.95
2018-12-13T21:10:05.615Z,28.77
2018-12-13T21:15:16.107Z,33.97
2018-12-13T21:17:45.236Z,34.03
2018-12-13T21:20:14.329Z,35.27
2018-12-13T21:22:43.460Z,39.30
2018-12-13T21:25:12.744Z,35.13
2018-12-13T21:27:41.820Z,36.40
2018-12-13T21:30:11.218Z,36.03
2018-12-13T21:32:40.533Z,36.80
2018-12-13T21:35:09.878Z,28.03
2018-12-13T21:37:39.211Z,35.70
2018-12-13T21:42:47.604Z,45.57
2018-12-13T21:45:16.788Z,37.53
2018-12-13T21:50:27.397Z,33.77
2018-12-13T21:52:56.564Z,36.60
2018-12-13T21:55:25.810Z,39.33
2018-12-13T21:57:54.984Z,37.97
2018-12-13T22:03:03.379Z,34.43
2018-12-13T22:05:32.496Z,36.28
2018-12-13T22:08:01.563Z,42.93
2018-12-13T22:10:30.717Z,37.10
2018-12-13T22:15:39.106Z,37.90
2018-12-13T22:18:08.250Z,38.77
2018-12-13T22:20:37.492Z,29.27
2018-12-13T22:23:07.536Z,44.97
2018-12-13T22:25:36.638Z,35.20
2018-12-13T22:28:05.858Z,45.33
2018-12-13T22:30:34.971Z,32.10
2018-12-13T22:33:04.168Z,36.63
2018-12-13T22:35:33.340Z,33.70
2018-12-13T22:38:02.396Z,49.43
2018-12-13T22:40:31.552Z,54.07
2018-12-13T22:43:00.705Z,46.80
2018-12-13T22:45:29.943Z,46.73
2018-12-13T22:47:59.915Z,43.85
2018-12-13T22:50:29.859Z,47.73
2018-12-13T22:53:01.469Z,42.80
2018-12-13T22:55:30.669Z,50.70
2018-12-13T22:58:00.132Z,34.05
2018-12-13T23:03:10.692Z,41.43
2018-12-13T23:05:39.965Z,51.90
2018-12-13T23:08:09.088Z,43.23
2018-12-13T23:13:19.084Z,43.30
2018-12-13T23:15:48.175Z,43.93
2018-12-13T23:18:18.817Z,40.20
2018-12-13T23:20:48.011Z,36.90
2018-12-13T23:23:17.923Z,37.67
2018-12-13T23:25:47.035Z,38.00
2018-12-13T23:28:16.151Z,47.93
2018-12-13T23:30:45.293Z,35.63
2018-12-13T23:33:14.380Z,41.48
2018-12-13T23:35:43.589Z,38.27
2018-12-13T23:40:52.029Z,43.67
2018-12-13T23:45:59.803Z,44.20
2018-12-13T23:48:28.928Z,36.80
2018-12-13T23:50:58.063Z,34.73
2018-12-13T23:53:27.519Z,46.20
2018-12-13T23:58:34.928Z,33.57
